createdAt,value
2023-04-16T00:01:56.354Z,102124.00
2023-04-16T00:04:23.482Z,102123.91
2023-04-16T00:06:50.415Z,102121.38
2023-04-16T00:09:17.268Z,102123.19
2023-04-16T00:11:44.032Z,102128.59
2023-04-16T00:14:10.894Z,102134.97
2023-04-16T00:16:38.759Z,102121.09
2023-04-16T00:19:05.557Z,102126.22
2023-04-16T00:21:32.382Z,102124.53
2023-04-16T00:23:59.174Z,102122.03
2023-04-16T00:26:26.018Z,102121.22
2023-04-16T00:28:52.839Z,102121.91
2023-04-16T00:31:26.487Z,102119.25
2023-04-16T00:33:53.805Z,102125.38
2023-04-16T00:36:20.536Z,102126.38
2023-04-16T00:38:47.450Z,102118.44
2023-04-16T00:41:14.407Z,102122.03
2023-04-16T00:43:41.151Z,102127.31
2023-04-16T00:46:08.493Z,102121.22
2023-04-16T00:48:36.669Z,102129.13
2023-04-16T00:51:05.421Z,102121.31
2023-04-16T00:53:32.733Z,102126.59
2023-04-16T00:55:59.539Z,102125.66
2023-04-16T00:58:26.360Z,102118.56
2023-04-16T01:00:53.106Z,102121.22
2023-04-16T01:03:20.114Z,102121.31
2023-04-16T01:05:49.568Z,102115.22
2023-04-16T01:08:17.999Z,102117.00
2023-04-16T01:10:44.887Z,102112.56
2023-04-16T01:13:11.960Z,102111.03
2023-04-16T01:15:38.815Z,102113.69
2023-04-16T01:18:15.505Z,102109.50
2023-04-16T01:20:42.635Z,102107.81
2023-04-16T01:23:09.454Z,102105.31
2023-04-16T01:25:36.168Z,102113.25
2023-04-16T01:28:03.038Z,102112.28
2023-04-16T01:30:29.858Z,102107.13
2023-04-16T01:32:58.194Z,102119.47
2023-04-16T01:35:25.261Z,102112.53
2023-04-16T01:37:52.098Z,102108.09
2023-04-16T01:40:19.182Z,102109.03
2023-04-16T01:42:46.145Z,102109.19
2023-04-16T01:45:13.010Z,102111.13
2023-04-16T01:47:39.816Z,102109.31
2023-04-16T01:50:07.199Z,102108.47
2023-04-16T01:52:33.933Z,102112.19
2023-04-16T01:55:00.734Z,102105.41
2023-04-16T01:57:27.507Z,102109.09
2023-04-16T01:59:54.301Z,102108.16
2023-04-16T02:02:28.462Z,102109.25
2023-04-16T02:04:56.032Z,102100.63
2023-04-16T02:07:22.979Z,102100.06
2023-04-16T02:09:51.113Z,102101.84
2023-04-16T02:12:18.138Z,102098.38
2023-04-16T02:14:44.986Z,102095.16
2023-04-16T02:17:12.230Z,102096.94
2023-04-16T02:19:38.936Z,102100.66
2023-04-16T02:22:05.779Z,102099.00
2023-04-16T02:24:32.524Z,102100.66
2023-04-16T02:26:59.275Z,102094.53
2023-04-16T02:29:26.339Z,102098.16
2023-04-16T02:31:55.615Z,102097.19
2023-04-16T02:34:22.450Z,102097.91
2023-04-16T02:36:49.190Z,102098.84
2023-04-16T02:39:15.909Z,102104.13
2023-04-16T02:41:42.721Z,102088.31
2023-04-16T02:44:09.533Z,102089.16
2023-04-16T02:46:36.335Z,102090.94
2023-04-16T02:49:03.074Z,102087.47
2023-04-16T02:51:29.889Z,102088.31
2023-04-16T02:53:56.671Z,102087.47
2023-04-16T02:56:23.446Z,102081.38
2023-04-16T02:58:50.217Z,102089.41
2023-04-16T03:01:16.990Z,102083.19
2023-04-16T03:03:43.871Z,102079.56
2023-04-16T03:06:11.181Z,102080.41
2023-04-16T03:08:40.316Z,102083.03
2023-04-16T03:11:07.835Z,102080.56
2023-04-16T03:13:34.615Z,102090.13
2023-04-16T03:16:01.413Z,102090.38
2023-04-16T03:18:28.302Z,102088.47
2023-04-16T03:20:55.062Z,102085.22
2023-04-16T03:23:21.822Z,102086.19
2023-04-16T03:25:48.756Z,102093.97
2023-04-16T03:28:15.663Z,102095.78
2023-04-16T03:30:42.573Z,102090.38
2023-04-16T03:33:09.396Z,102094.09
2023-04-16T03:35:36.259Z,102094.09
2023-04-16T03:38:02.986Z,102092.44
2023-04-16T03:40:29.801Z,102089.81
2023-04-16T03:42:56.701Z,102091.59
2023-04-16T03:45:23.431Z,102097.00
2023-04-16T03:47:53.033Z,102090.78
2023-04-16T03:50:20.291Z,102091.84
2023-04-16T03:52:49.549Z,102098.91
2023-04-16T03:55:16.353Z,102093.91
2023-04-16T03:57:43.165Z,102093.19
2023-04-16T04:00:10.346Z,102094.19
2023-04-16T04:02:37.276Z,102082.19
2023-04-16T04:05:04.398Z,102092.63
2023-04-16T04:07:31.394Z,102086.38
2023-04-16T04:09:58.204Z,102092.13
2023-04-16T04:12:25.219Z,102096.28
2023-04-16T04:14:52.064Z,102092.81
2023-04-16T04:17:18.904Z,102091.72
2023-04-16T04:19:59.889Z,102091.59
2023-04-16T04:22:27.640Z,102093.13
2023-04-16T04:24:54.437Z,102091.22
2023-04-16T04:27:21.293Z,102086.19
2023-04-16T04:29:48.129Z,102094.09
2023-04-16T04:32:14.868Z,102084.53
2023-04-16T04:34:41.636Z,102091.59
2023-04-16T04:37:08.382Z,102082.72
2023-04-16T04:39:35.150Z,102091.47
2023-04-16T04:42:03.840Z,102095.09
2023-04-16T04:44:30.606Z,102097.13
2023-04-16T04:46:57.475Z,102094.63
2023-04-16T04:49:24.288Z,102091.28
2023-04-16T04:51:51.279Z,102096.53
2023-04-16T04:54:18.086Z,102091.38
2023-04-16T04:56:46.170Z,102095.44
2023-04-16T04:59:13.124Z,102100.34
2023-04-16T05:01:39.965Z,102092.44
2023-04-16T05:04:06.953Z,102092.28
2023-04-16T05:06:33.880Z,102088.59
2023-04-16T05:09:00.846Z,102091.22
2023-04-16T05:11:27.664Z,102093.00
2023-04-16T05:13:54.434Z,102090.50
2023-04-16T05:16:21.336Z,102098.28
2023-04-16T05:18:48.171Z,102100.09
2023-04-16T05:21:14.997Z,102096.63
2023-04-16T05:23:41.782Z,102093.13
2023-04-16T05:26:08.549Z,102100.47
2023-04-16T05:28:35.499Z,102100.72
2023-04-16T05:31:02.310Z,102093.63
2023-04-16T05:33:29.235Z,102099.75
2023-04-16T05:35:56.054Z,102101.31
2023-04-16T05:38:22.793Z,102102.16
2023-04-16T05:40:49.864Z,102105.47
2023-04-16T05:43:16.677Z,102103.69
2023-04-16T05:45:43.499Z,102110.63
2023-04-16T05:48:10.862Z,102110.50
2023-04-16T05:50:37.683Z,102106.78
2023-04-16T05:53:06.110Z,102106.56
2023-04-16T05:55:32.931Z,102100.31
2023-04-16T05:57:59.642Z,102109.88
2023-04-16T06:00:27.440Z,102112.53
2023-04-16T06:02:54.230Z,102109.88
2023-04-16T06:05:21.349Z,102107.97
2023-04-16T06:07:48.204Z,102114.53
2023-04-16T06:10:14.985Z,102115.22
2023-04-16T06:12:41.958Z,102108.16
2023-04-16T06:15:09.216Z,102122.06
2023-04-16T06:17:36.214Z,102125.66
2023-04-16T06:20:03.112Z,102125.66
2023-04-16T06:22:30.013Z,102115.66
2023-04-16T06:24:57.157Z,102123.19
2023-04-16T06:27:24.087Z,102127.28
2023-04-16T06:29:51.131Z,102126.44
2023-04-16T06:32:18.007Z,102134.34
2023-04-16T06:34:44.803Z,102128.69
2023-04-16T06:37:11.692Z,102129.13
2023-04-16T06:39:38.480Z,102133.28
2023-04-16T06:42:05.361Z,102131.09
2023-04-16T06:44:32.201Z,102134.16
2023-04-16T06:47:02.241Z,102131.13
2023-04-16T06:49:29.105Z,102137.69
2023-04-16T06:51:56.557Z,102132.88
2023-04-16T06:54:23.461Z,102134.13
2023-04-16T06:56:50.278Z,102137.09
2023-04-16T06:59:17.359Z,102140.06
2023-04-16T07:01:44.288Z,102141.03
2023-04-16T07:04:12.298Z,102142.19
2023-04-16T07:06:39.100Z,102141.91
2023-04-16T07:09:06.024Z,102145.69
2023-04-16T07:11:32.951Z,102144.47
2023-04-16T07:13:59.737Z,102149.34
2023-04-16T07:16:26.599Z,102155.03
2023-04-16T07:18:53.573Z,102153.13
2023-04-16T07:21:21.342Z,102150.06
2023-04-16T07:23:48.142Z,102157.41
2023-04-16T07:26:15.024Z,102149.81
2023-04-16T07:28:41.957Z,102150.00
2023-04-16T07:31:08.762Z,102151.81
2023-04-16T07:33:35.687Z,102154.47
2023-04-16T07:36:02.497Z,102155.72
2023-04-16T07:38:29.468Z,102149.19
2023-04-16T07:40:57.102Z,102152.25
2023-04-16T07:43:24.032Z,102152.66
2023-04-16T07:45:50.883Z,102158.22
2023-04-16T07:48:17.911Z,102164.78
2023-04-16T07:50:44.881Z,102163.34
2023-04-16T07:53:12.101Z,102170.47
2023-04-16T07:55:38.908Z,102171.97
2023-04-16T07:58:07.765Z,102170.56
2023-04-16T08:00:34.643Z,102169.47
2023-04-16T08:03:01.787Z,102168.31
2023-04-16T08:05:29.113Z,102177.94
2023-04-16T08:07:56.526Z,102174.16
2023-04-16T08:10:23.358Z,102174.88
2023-04-16T08:12:50.216Z,102174.56
2023-04-16T08:15:17.272Z,102176.81
2023-04-16T08:17:44.167Z,102180.84
2023-04-16T08:20:14.027Z,102180.09
2023-04-16T08:22:42.655Z,102186.41
2023-04-16T08:25:09.955Z,102184.84
2023-04-16T08:27:36.996Z,102183.56
2023-04-16T08:30:04.207Z,102179.81
2023-04-16T08:32:31.279Z,102186.19
2023-04-16T08:34:58.230Z,102180.16
2023-04-16T08:37:25.714Z,102175.78
2023-04-16T08:39:52.657Z,102182.31
2023-04-16T08:42:23.805Z,102180.22
2023-04-16T08:44:53.452Z,102184.38
2023-04-16T08:47:23.386Z,102184.06
2023-04-16T08:49:50.591Z,102187.81
2023-04-16T08:52:20.510Z,102185.69
2023-04-16T08:54:59.853Z,102185.94
2023-04-16T08:57:29.998Z,102191.25
2023-04-16T08:59:58.139Z,102196.25
2023-04-16T09:02:26.573Z,102196.63
2023-04-16T09:04:54.085Z,102197.56
2023-04-16T09:07:21.720Z,102203.78
2023-04-16T09:09:50.194Z,102203.06
2023-04-16T09:12:17.846Z,102199.66
2023-04-16T09:14:47.487Z,102207.34
2023-04-16T09:17:15.264Z,102205.06
2023-04-16T09:19:42.285Z,102206.25
2023-04-16T09:22:09.188Z,102207.47
2023-04-16T09:24:36.334Z,102207.19
2023-04-16T09:27:03.314Z,102218.00
2023-04-16T09:29:39.234Z,102211.13
2023-04-16T09:32:07.777Z,102208.00
2023-04-16T09:34:35.643Z,102209.66
2023-04-16T09:37:12.335Z,102211.16
2023-04-16T09:39:39.192Z,102215.03
2023-04-16T09:42:06.536Z,102211.41
2023-04-16T09:44:39.874Z,102216.25
2023-04-16T09:47:08.666Z,102206.00
2023-04-16T09:49:37.149Z,102220.78
2023-04-16T09:52:09.611Z,102214.66
2023-04-16T09:54:36.414Z,102211.66
2023-04-16T09:57:03.806Z,102205.69
2023-04-16T09:59:34.240Z,102215.47
2023-04-16T10:02:15.514Z,102210.16
2023-04-16T10:04:47.427Z,102211.00
2023-04-16T10:07:14.517Z,102208.19
2023-04-16T10:09:41.966Z,102217.81
2023-04-16T10:12:09.137Z,102213.50
2023-04-16T10:14:36.425Z,102212.50
2023-04-16T10:17:04.310Z,102214.31
2023-04-16T10:19:32.738Z,102214.31
2023-04-16T10:21:59.757Z,102215.31
2023-04-16T10:24:26.660Z,102212.03
2023-04-16T10:26:53.613Z,102215.75
2023-04-16T10:29:21.609Z,102217.94
2023-04-16T10:31:49.290Z,102209.16
2023-04-16T10:34:16.647Z,102219.19
2023-04-16T10:36:43.508Z,102221.38
2023-04-16T10:39:13.542Z,102215.41
2023-04-16T10:41:43.034Z,102218.31
2023-04-16T10:44:10.422Z,102215.03
2023-04-16T10:46:39.612Z,102220.50
2023-04-16T10:49:16.318Z,102214.50
2023-04-16T10:51:43.195Z,102210.03
2023-04-16T10:54:14.764Z,102211.38
2023-04-16T10:56:41.679Z,102223.66
2023-04-16T10:59:11.181Z,102226.03
2023-04-16T11:01:41.432Z,102218.22
2023-04-16T11:04:18.829Z,102210.56
2023-04-16T11:06:55.279Z,102207.06
2023-04-16T11:09:31.207Z,102206.88
2023-04-16T11:11:58.362Z,102210.38
2023-04-16T11:14:25.316Z,102201.94
2023-04-16T11:16:52.394Z,102197.28
2023-04-16T11:19:19.477Z,102205.13
2023-04-16T11:21:46.564Z,102206.25
2023-04-16T11:24:13.408Z,102214.09
2023-04-16T11:26:40.591Z,102198.78
2023-04-16T11:29:14.308Z,102207.44
2023-04-16T11:31:41.243Z,102199.00
2023-04-16T11:34:08.886Z,102195.50
2023-04-16T11:36:43.346Z,102203.16
2023-04-16T11:39:10.514Z,102202.84
2023-04-16T11:41:47.821Z,102201.53
2023-04-16T11:44:24.253Z,102207.03
2023-04-16T11:46:51.871Z,102202.91
2023-04-16T11:49:27.545Z,102195.75
2023-04-16T11:51:55.496Z,102196.09
2023-04-16T11:54:23.228Z,102195.78
2023-04-16T11:56:51.227Z,102196.31
2023-04-16T11:59:19.588Z,102200.44
2023-04-16T12:01:48.559Z,102195.28
2023-04-16T12:04:16.923Z,102190.78
2023-04-16T12:06:53.269Z,102196.47
2023-04-16T12:09:29.332Z,102204.13
2023-04-16T12:11:56.329Z,102202.31
2023-04-16T12:14:23.393Z,102203.44
2023-04-16T12:16:50.529Z,102193.66
2023-04-16T12:19:18.118Z,102200.28
2023-04-16T12:21:46.291Z,102196.47
2023-04-16T12:24:15.158Z,102196.31
2023-04-16T12:26:43.590Z,102186.81
2023-04-16T12:29:20.309Z,102192.13
2023-04-16T12:31:47.948Z,102192.00
2023-04-16T12:34:15.760Z,102181.53
2023-04-16T12:36:42.928Z,102185.34
2023-04-16T12:39:11.423Z,102181.38
2023-04-16T12:41:39.590Z,102181.69
2023-04-16T12:44:09.407Z,102187.88
2023-04-16T12:46:37.738Z,102186.75
2023-04-16T12:49:04.647Z,102185.56
2023-04-16T12:51:31.948Z,102192.56
2023-04-16T12:53:58.827Z,102180.78
2023-04-16T12:56:25.892Z,102185.91
2023-04-16T12:58:52.773Z,102183.59
2023-04-16T13:01:20.147Z,102186.25
2023-04-16T13:03:47.787Z,102178.41
2023-04-16T13:06:15.351Z,102181.75
2023-04-16T13:08:42.578Z,102182.41
2023-04-16T13:11:09.529Z,102182.75
2023-04-16T13:13:36.848Z,102179.56
2023-04-16T13:16:07.035Z,102182.91
2023-04-16T13:18:34.267Z,102178.09
2023-04-16T13:21:01.803Z,102178.09
2023-04-16T13:23:29.063Z,102178.28
2023-04-16T13:25:55.981Z,102174.78
2023-04-16T13:28:22.954Z,102165.78
2023-04-16T13:30:50.002Z,102166.78
2023-04-16T13:33:17.415Z,102176.28
2023-04-16T13:35:44.271Z,102172.63
2023-04-16T13:38:11.300Z,102166.94
2023-04-16T13:40:38.295Z,102166.94
2023-04-16T13:43:07.609Z,102165.59
2023-04-16T13:45:34.891Z,102169.25
2023-04-16T13:48:02.449Z,102163.94
2023-04-16T13:50:29.528Z,102157.44
2023-04-16T13:52:56.872Z,102162.78
2023-04-16T13:55:23.748Z,102157.28
2023-04-16T13:57:52.767Z,102161.78
2023-04-16T14:00:22.200Z,102163.97
2023-04-16T14:02:49.607Z,102158.44
2023-04-16T14:05:16.781Z,102165.59
2023-04-16T14:07:43.690Z,102160.41
2023-04-16T14:10:11.199Z,102164.41
2023-04-16T14:12:38.922Z,102164.91
2023-04-16T14:15:07.118Z,102168.22
2023-04-16T14:17:34.147Z,102165.91
2023-04-16T14:20:01.371Z,102159.41
2023-04-16T14:22:28.248Z,102162.72
2023-04-16T14:24:55.266Z,102167.84
2023-04-16T14:27:22.185Z,102161.19
2023-04-16T14:29:49.106Z,102156.19
2023-04-16T14:32:16.226Z,102157.88
2023-04-16T14:34:43.127Z,102163.19
2023-04-16T14:37:10.090Z,102154.88
2023-04-16T14:39:38.989Z,102147.38
2023-04-16T14:42:06.966Z,102148.75
2023-04-16T14:44:33.956Z,102152.91
2023-04-16T14:47:00.914Z,102148.25
2023-04-16T14:49:27.857Z,102149.75
2023-04-16T14:51:54.826Z,102140.09
2023-04-16T14:54:21.902Z,102141.59
2023-04-16T14:56:49.794Z,102141.25
2023-04-16T14:59:16.730Z,102140.94
2023-04-16T15:01:43.671Z,102143.94
2023-04-16T15:04:10.805Z,102143.59
2023-04-16T15:06:38.590Z,102139.13
2023-04-16T15:09:05.551Z,102132.97
2023-04-16T15:11:32.403Z,102132.63
2023-04-16T15:13:59.226Z,102132.31
2023-04-16T15:16:26.351Z,102123.97
2023-04-16T15:18:53.412Z,102125.16
2023-04-16T15:21:20.408Z,102123.63
2023-04-16T15:23:47.491Z,102122.81
2023-04-16T15:26:14.610Z,102121.16
2023-04-16T15:28:41.840Z,102118.66
2023-04-16T15:31:08.920Z,102119.31
2023-04-16T15:33:35.973Z,102112.16
2023-04-16T15:36:02.874Z,102111.31
2023-04-16T15:38:31.050Z,102112.84
2023-04-16T15:41:00.162Z,102118.00
2023-04-16T15:43:27.616Z,102111.34
2023-04-16T15:45:54.507Z,102100.03
2023-04-16T15:48:21.718Z,102097.34
2023-04-16T15:50:49.073Z,102105.34
2023-04-16T15:53:16.397Z,102103.34
2023-04-16T15:55:43.389Z,102107.84
2023-04-16T15:58:10.309Z,102099.88
2023-04-16T16:00:37.337Z,102097.19
2023-04-16T16:03:07.161Z,102106.84
2023-04-16T16:05:34.271Z,102111.00
2023-04-16T16:08:02.085Z,102104.50
2023-04-16T16:10:29.033Z,102105.00
2023-04-16T16:12:57.598Z,102106.16
2023-04-16T16:15:24.515Z,102106.50
2023-04-16T16:17:53.773Z,102107.81
2023-04-16T16:20:21.336Z,102113.44
2023-04-16T16:22:48.775Z,102107.63
2023-04-16T16:25:15.851Z,102116.13
2023-04-16T16:27:42.894Z,102113.59
2023-04-16T16:30:10.145Z,102110.25
2023-04-16T16:32:38.111Z,102107.78
2023-04-16T16:35:05.330Z,102112.56
2023-04-16T16:37:32.353Z,102115.41
2023-04-16T16:39:59.330Z,102118.56
2023-04-16T16:42:27.016Z,102117.72
2023-04-16T16:44:55.975Z,102116.06
2023-04-16T16:47:24.941Z,102103.91
2023-04-16T16:49:52.044Z,102110.41
2023-04-16T16:52:18.987Z,102105.09
2023-04-16T16:54:45.849Z,102114.03
2023-04-16T16:57:12.927Z,102114.19
2023-04-16T16:59:39.793Z,102117.88
2023-04-16T17:02:07.130Z,102111.03
2023-04-16T17:04:34.017Z,102107.69
2023-04-16T17:07:04.542Z,102110.53
2023-04-16T17:09:31.584Z,102108.72
2023-04-16T17:11:58.541Z,102108.22
2023-04-16T17:14:25.631Z,102108.25
2023-04-16T17:16:52.607Z,102095.28
2023-04-16T17:19:19.595Z,102099.28
2023-04-16T17:21:46.810Z,102097.81
2023-04-16T17:24:13.845Z,102101.47
2023-04-16T17:26:41.528Z,102101.97
2023-04-16T17:29:08.374Z,102102.31
2023-04-16T17:31:35.488Z,102105.13
2023-04-16T17:34:05.248Z,102103.66
2023-04-16T17:36:32.609Z,102112.78
2023-04-16T17:38:59.697Z,102104.13
2023-04-16T17:41:26.577Z,102101.78
2023-04-16T17:43:53.532Z,102110.09
2023-04-16T17:46:20.644Z,102107.94
2023-04-16T17:48:49.267Z,102111.88
2023-04-16T17:51:17.293Z,102109.72
2023-04-16T17:53:44.971Z,102110.19
2023-04-16T17:56:12.068Z,102113.50
2023-04-16T17:58:38.999Z,102109.34
2023-04-16T18:01:06.442Z,102110.66
2023-04-16T18:03:34.768Z,102114.44
2023-04-16T18:06:01.819Z,102121.91
2023-04-16T18:08:29.250Z,102110.91
2023-04-16T18:10:57.153Z,102120.22
2023-04-16T18:13:24.352Z,102123.50
2023-04-16T18:15:52.109Z,102124.81
2023-04-16T18:18:21.202Z,102127.94
2023-04-16T18:20:48.085Z,102140.19
2023-04-16T18:23:14.960Z,102133.53
2023-04-16T18:25:42.057Z,102136.47
2023-04-16T18:28:09.543Z,102135.13
2023-04-16T18:30:39.923Z,102134.47
2023-04-16T18:33:38.446Z,102143.56
2023-04-16T18:35:54.152Z,102149.19
2023-04-16T18:38:21.103Z,102144.19
2023-04-16T18:40:50.030Z,102146.31
2023-04-16T18:43:16.892Z,102146.31
2023-04-16T18:45:43.831Z,102150.94
2023-04-16T18:48:10.883Z,102145.81
2023-04-16T18:50:37.776Z,102146.78
2023-04-16T18:53:04.753Z,102147.91
2023-04-16T18:55:31.914Z,102154.53
2023-04-16T18:57:58.806Z,102142.41
2023-04-16T19:00:26.113Z,102155.00
2023-04-16T19:02:53.366Z,102154.47
2023-04-16T19:05:21.730Z,102154.63
2023-04-16T19:07:48.936Z,102156.59
2023-04-16T19:10:15.972Z,102157.88
2023-04-16T19:12:43.070Z,102152.38
2023-04-16T19:15:10.428Z,102149.34
2023-04-16T19:17:37.786Z,102153.13
2023-04-16T19:20:09.591Z,102155.25
2023-04-16T19:22:36.519Z,102159.97
2023-04-16T19:25:03.813Z,102157.50
2023-04-16T19:27:30.851Z,102164.63
2023-04-16T19:29:57.982Z,102159.47
2023-04-16T19:32:25.290Z,102162.13
2023-04-16T19:34:52.460Z,102168.41
2023-04-16T19:37:19.649Z,102163.41
2023-04-16T19:39:46.634Z,102163.56
2023-04-16T19:42:13.777Z,102169.00
2023-04-16T19:44:40.889Z,102165.53
2023-04-16T19:47:07.987Z,102165.81
2023-04-16T19:49:35.192Z,102169.44
2023-04-16T19:52:02.229Z,102171.59
2023-04-16T19:54:29.321Z,102175.53
2023-04-16T19:56:57.431Z,102182.13
2023-04-16T19:59:25.464Z,102188.69
2023-04-16T20:01:52.510Z,102181.03
2023-04-16T20:04:19.494Z,102190.13
2023-04-16T20:06:47.040Z,102195.56
2023-04-16T20:09:14.045Z,102192.09
2023-04-16T20:11:41.260Z,102187.91
2023-04-16T20:14:08.210Z,102189.88
2023-04-16T20:16:38.810Z,102190.03
2023-04-16T20:19:08.737Z,102192.81
2023-04-16T20:21:36.452Z,102193.81
2023-04-16T20:24:03.810Z,102196.31
2023-04-16T20:26:34.250Z,102195.47
2023-04-16T20:29:01.686Z,102199.13
2023-04-16T20:31:28.943Z,102202.59
2023-04-16T20:33:56.306Z,102207.06
2023-04-16T20:36:23.281Z,102194.66
2023-04-16T20:38:52.041Z,102208.06
2023-04-16T20:41:21.882Z,102197.44
2023-04-16T20:43:50.694Z,102199.41
2023-04-16T20:46:18.095Z,102200.53
2023-04-16T20:48:45.373Z,102200.25
2023-04-16T20:51:12.796Z,102202.34
2023-04-16T20:53:39.988Z,102195.50
2023-04-16T20:56:08.807Z,102194.69
2023-04-16T20:58:35.986Z,102200.16
2023-04-16T21:01:03.048Z,102195.00
2023-04-16T21:03:30.437Z,102186.34
2023-04-16T21:05:57.739Z,102191.09
2023-04-16T21:08:25.130Z,102187.09
2023-04-16T21:10:52.275Z,102191.69
2023-04-16T21:13:21.110Z,102191.84
2023-04-16T21:15:48.345Z,102196.59
2023-04-16T21:18:17.486Z,102186.44
2023-04-16T21:20:44.990Z,102184.75
2023-04-16T21:23:11.941Z,102189.38
2023-04-16T21:25:39.151Z,102183.56
2023-04-16T21:28:06.836Z,102180.06
2023-04-16T21:30:34.156Z,102190.81
2023-04-16T21:33:01.547Z,102190.09
2023-04-16T21:35:28.580Z,102194.56
2023-04-16T21:37:55.530Z,102193.59
2023-04-16T21:40:22.602Z,102187.44
2023-04-16T21:42:49.755Z,102194.41
2023-04-16T21:45:17.088Z,102200.69
2023-04-16T21:47:44.191Z,102198.22
2023-04-16T21:50:18.080Z,102197.38
2023-04-16T21:52:47.092Z,102203.50
2023-04-16T21:55:14.711Z,102201.53
2023-04-16T21:57:44.037Z,102198.88
2023-04-16T22:00:14.542Z,102199.84
2023-04-16T22:02:42.526Z,102196.22
2023-04-16T22:05:11.209Z,102196.09
2023-04-16T22:07:39.050Z,102194.41
2023-04-16T22:10:07.184Z,102195.41
2023-04-16T22:12:38.011Z,102190.25
2023-04-16T22:15:05.793Z,102191.22
2023-04-16T22:17:34.461Z,102191.50
2023-04-16T22:20:05.416Z,102194.16
2023-04-16T22:22:32.380Z,102187.22
2023-04-16T22:24:59.463Z,102176.44
2023-04-16T22:27:26.745Z,102187.88
2023-04-16T22:29:53.895Z,102182.75
2023-04-16T22:32:21.138Z,102181.75
2023-04-16T22:34:48.280Z,102185.22
2023-04-16T22:37:15.204Z,102180.09
2023-04-16T22:39:42.523Z,102177.47
2023-04-16T22:42:09.954Z,102172.97
2023-04-16T22:44:37.134Z,102174.94
2023-04-16T22:47:04.096Z,102166.16
2023-04-16T22:49:33.564Z,102176.75
2023-04-16T22:52:01.580Z,102175.78
2023-04-16T22:54:29.999Z,102171.47
2023-04-16T22:56:57.205Z,102179.41
2023-04-16T22:59:24.643Z,102176.63
2023-04-16T23:01:52.117Z,102172.28
2023-04-16T23:04:19.535Z,102172.97
2023-04-16T23:06:46.907Z,102168.69
2023-04-16T23:09:14.274Z,102169.66
2023-04-16T23:11:41.717Z,102168.81
2023-04-16T23:14:08.786Z,102174.25
2023-04-16T23:16:35.985Z,102169.91
2023-04-16T23:19:02.996Z,102166.47
2023-04-16T23:21:30.083Z,102174.53
2023-04-16T23:23:57.732Z,102168.41
2023-04-16T23:26:24.883Z,102165.91
2023-04-16T23:28:51.807Z,102163.41
2023-04-16T23:31:18.770Z,102169.69
2023-04-16T23:33:45.733Z,102168.84
2023-04-16T23:36:12.789Z,102166.19
2023-04-16T23:38:39.818Z,102168.84
2023-04-16T23:41:06.848Z,102171.50
2023-04-16T23:43:35.518Z,102182.09
2023-04-16T23:46:02.833Z,102176.78
2023-04-16T23:48:29.895Z,102180.28
2023-04-16T23:50:56.990Z,102182.94
2023-04-16T23:53:24.017Z,102178.59
2023-04-16T23:55:52.274Z,102184.72
2023-04-16T23:58:19.361Z,102182.09
